Time;durP1;ratioP1;P1;durP2;ratioP2;P2;SDS_P1;SDS_P2;PMS_P1;PMS_P2;Temp;Humidity;BMP_temperature;BMP_pressure;BME280_temperature;BME280_humidity;BME280_pressure;Samples;Min_cycle;Max_cycle;Signal;HPM_P1;HPM_P2
2022/09/21 00:00:43;;;;;;;10.30;7.80;;;;;;;9.07;69.86;100861.84;108045;1284;23820;-83
2022/09/21 00:03:42;;;;;;;10.40;7.90;;;;;;;9.05;69.96;100861.38;108622;1280;22014;-87
2022/09/21 00:06:49;;;;;;;8.60;7.70;;;;;;;9.01;70.09;100862.85;108047;1286;22021;-88
2022/09/21 00:09:38;;;;;;;11.80;8.40;;;;;;;8.99;70.00;100865.69;107932;1287;22093;-88
2022/09/21 00:12:38;;;;;;;9.00;7.40;;;;;;;8.97;69.99;100870.41;108149;1287;23073;-89
2022/09/21 00:15:23;;;;;;;12.50;7.90;;;;;;;8.93;70.24;100870.16;108336;1282;22812;-88
2022/09/21 00:18:28;;;;;;;8.40;7.50;;;;;;;8.92;70.41;100868.63;108754;1279;23625;-88
2022/09/21 00:21:14;;;;;;;8.90;7.00;;;;;;;8.90;70.20;100866.06;108740;1279;22512;-87
2022/09/21 00:23:58;;;;;;;9.50;6.90;;;;;;;8.90;70.37;100867.10;108585;1282;23106;-88
2022/09/21 00:26:35;;;;;;;10.80;7.00;;;;;;;8.89;70.55;100864.68;108549;1281;22009;-86
2022/09/21 00:29:29;;;;;;;6.80;6.00;;;;;;;8.88;70.60;100864.36;108447;1282;23256;-87
2022/09/21 00:32:06;;;;;;;10.80;7.80;;;;;;;8.87;70.75;100864.55;108528;1281;22792;-88
2022/09/21 00:34:44;;;;;;;7.60;6.80;;;;;;;8.87;70.68;100868.91;108540;1281;22645;-87
2022/09/21 00:37:19;;;;;;;6.80;5.80;;;;;;;8.86;70.58;100872.05;108601;1273;21993;-86
2022/09/21 00:40:00;;;;;;;9.60;6.50;;;;;;;8.84;70.59;100870.89;108898;1273;23619;-87
2022/09/21 00:42:49;;;;;;;7.50;6.20;;;;;;;8.80;70.78;100871.30;108970;1273;21982;-89
2022/09/21 00:45:29;;;;;;;7.90;6.70;;;;;;;8.80;71.01;100880.00;109092;1272;23599;-87
2022/09/21 00:48:06;;;;;;;7.20;5.90;;;;;;;8.79;71.03;100882.09;109117;1273;22015;-87
2022/09/21 00:50:57;;;;;;;9.10;7.20;;;;;;;8.80;71.12;100879.99;109121;1273;22272;-87
2022/09/21 00:54:16;;;;;;;;;;;;;;;;;;;;;
2022/09/21 00:58:15;;;;;;;6.80;5.60;;;;;;;8.73;71.11;100886.89;109341;1272;22682;-88
2022/09/21 01:00:59;;;;;;;7.40;6.50;;;;;;;8.69;71.28;100883.86;109018;1279;21995;-88
2022/09/21 01:04:15;;;;;;;;;;;;;;;;;;;;;
2022/09/21 01:07:43;;;;;;;8.10;6.00;;;;;;;8.66;71.29;100882.72;109538;1273;21950;-87
2022/09/21 01:15:40;;;;;;;6.50;5.90;;;;;;;8.63;71.41;100882.45;109748;1270;22015;-90
2022/09/21 01:19:01;;;;;;;11.20;6.60;;;;;;;8.62;71.76;100887.66;109294;1272;22001;-88
2022/09/21 01:25:31;;;;;;;8.60;7.00;;;;;;;8.67;71.75;100895.02;109520;1273;23700;-86
2022/09/21 01:29:19;;;;;;;;;;;;;;;;;;;;;
2022/09/21 01:32:25;;;;;;;9.70;6.90;;;;;;;8.65;71.71;100895.41;108916;1279;22017;-87
2022/09/21 01:35:23;;;;;;;8.80;6.40;;;;;;;8.62;71.75;100897.04;108558;1279;23117;-87
2022/09/21 01:38:10;;;;;;;8.60;6.50;;;;;;;8.59;71.85;100900.03;108437;1279;24595;-87
2022/09/21 01:41:17;;;;;;;8.20;6.60;;;;;;;8.60;71.71;100899.67;108777;1279;22647;-87
2022/09/21 01:44:20;;;;;;;7.30;6.60;;;;;;;8.59;71.76;100902.13;108818;1279;23060;-87
2022/09/21 01:47:09;;;;;;;10.30;7.00;;;;;;;8.59;71.87;100903.85;108562;1279;22001;-87
2022/09/21 01:49:49;;;;;;;10.10;6.50;;;;;;;8.63;72.02;100905.85;108467;1279;23620;-85
2022/09/21 01:53:14;;;;;;;9.80;6.40;;;;;;;8.68;72.11;100904.89;108694;1279;21991;-88
2022/09/21 01:56:23;;;;;;;8.00;6.10;;;;;;;8.68;72.21;100900.19;108323;1285;22057;-88
2022/09/21 01:59:46;;;;;;;6.90;6.00;;;;;;;8.73;72.11;100905.98;108737;1285;22032;-87
2022/09/21 02:02:51;;;;;;;8.70;7.10;;;;;;;8.78;72.41;100905.88;108243;1287;22139;-80
2022/09/21 02:05:36;;;;;;;11.40;7.50;;;;;;;8.83;72.36;100907.35;108381;1287;22247;-87
2022/09/21 02:08:25;;;;;;;9.40;7.70;;;;;;;8.86;72.24;100901.73;108680;1281;22524;-88
2022/09/21 02:11:49;;;;;;;8.10;6.50;;;;;;;8.87;72.19;100905.02;108923;1280;22503;-89
2022/09/21 02:15:04;;;;;;;8.80;6.90;;;;;;;8.85;72.17;100907.48;109192;1279;22347;-87
2022/09/21 02:22:15;;;;;;;6.60;6.00;;;;;;;8.86;72.39;100907.64;109796;1269;22000;-90
2022/09/21 02:26:17;;;;;;;;;;;;;;;;;;;;;
2022/09/21 02:30:10;;;;;;;9.20;6.50;;;;;;;8.95;72.38;100913.15;109297;1276;22443;-90
2022/09/21 02:34:13;;;;;;;7.80;7.00;;;;;;;8.95;72.45;100913.84;109342;1276;22001;-88
2022/09/21 02:37:37;;;;;;;7.30;6.40;;;;;;;8.96;72.60;100913.83;109387;1276;22008;-88
2022/09/21 02:40:54;;;;;;;9.00;6.80;;;;;;;8.97;72.56;100915.88;109521;1273;21985;-89
2022/09/21 02:48:19;;;;;;;;;;;;;;;;;;;;;
2022/09/21 02:52:05;;;;;;;7.60;6.70;;;;;;;9.07;72.88;100914.27;109841;1272;23679;-89
2022/09/21 02:56:03;;;;;;;;;;;;;;;;;;;;;
2022/09/21 03:00:13;;;;;;;;;;;;;;;;;;;;;
2022/09/21 03:04:49;;;;;;;7.50;6.50;;;;;;;9.15;72.92;100928.67;109843;1272;21990;-88
2022/09/21 03:08:00;;;;;;;7.80;7.00;;;;;;;9.22;73.02;100934.60;109350;1270;24589;-86
2022/09/21 03:11:04;;;;;;;8.30;7.00;;;;;;;9.29;72.97;100936.34;109058;1273;21998;-86
2022/09/21 03:13:44;;;;;;;12.20;8.40;;;;;;;9.36;72.95;100940.88;108796;1270;23781;-86
2022/09/21 03:16:29;;;;;;;12.00;8.60;;;;;;;9.40;72.85;100942.86;108940;1270;23052;-85
2022/09/21 03:19:10;;;;;;;9.40;8.40;;;;;;;9.44;72.75;100946.26;108854;1273;22637;-88
2022/09/21 03:22:08;;;;;;;8.60;7.80;;;;;;;9.48;72.73;100948.41;108992;1270;23796;-87
2022/09/21 03:25:02;;;;;;;9.20;7.30;;;;;;;9.48;72.88;100948.23;109155;1270;21981;-87
2022/09/21 03:27:52;;;;;;;7.60;6.90;;;;;;;9.50;72.76;100944.02;109048;1273;22094;-86
2022/09/21 03:30:42;;;;;;;7.60;6.30;;;;;;;9.51;72.67;100946.25;108854;1273;23705;-87
2022/09/21 03:33:47;;;;;;;7.60;6.30;;;;;;;9.52;72.84;100946.23;108652;1279;21974;-85
2022/09/21 03:39:48;;;;;;;6.00;5.20;;;;;;;9.53;73.02;100952.64;108591;1279;22011;-84
2022/09/21 03:42:29;;;;;;;6.80;5.80;;;;;;;9.56;73.12;100955.35;108672;1279;22010;-88
2022/09/21 03:45:54;;;;;;;10.00;6.30;;;;;;;9.60;73.14;100958.92;108687;1276;22039;-88
2022/09/21 03:49:02;;;;;;;7.00;6.10;;;;;;;9.56;73.19;100962.48;108884;1279;21971;-85
2022/09/21 03:51:43;;;;;;;6.90;6.20;;;;;;;9.59;73.26;100964.84;108479;1276;22774;-87
2022/09/21 03:54:30;;;;;;;7.30;6.50;;;;;;;9.63;73.25;100965.26;108557;1276;24360;-86
2022/09/21 03:57:36;;;;;;;;;;;;;;;;;;;;;
2022/09/21 04:00:37;;;;;;;10.30;6.30;;;;;;;9.68;73.44;100965.48;108694;1276;22372;-84
2022/09/21 04:03:32;;;;;;;10.10;6.70;;;;;;;9.72;73.41;100973.57;108520;1277;23599;-87
2022/09/21 04:06:44;;;;;;;10.70;7.50;;;;;;;9.73;73.42;100974.93;108808;1276;22040;-87
2022/09/21 04:09:35;;;;;;;9.10;8.20;;;;;;;9.74;73.55;100975.06;108653;1273;23054;-86
2022/09/21 04:12:37;;;;;;;10.90;8.70;;;;;;;9.77;73.60;100979.34;109041;1273;22130;-85
2022/09/21 04:15:44;;;;;;;9.30;8.30;;;;;;;9.80;73.60;100983.09;109179;1273;22009;-87
2022/09/21 04:18:20;;;;;;;11.20;8.20;;;;;;;9.84;73.68;100984.59;109155;1270;23832;-89
2022/09/21 04:21:25;;;;;;;15.80;9.80;;;;;;;9.87;73.69;100986.77;109253;1271;21994;-87
2022/09/21 04:25:02;;;;;;;9.90;9.00;;;;;;;9.86;73.59;100983.31;109124;1270;22004;-88
2022/09/21 04:28:07;;;;;;;9.80;7.70;;;;;;;9.88;73.69;100991.09;109329;1270;22006;-89
2022/09/21 04:31:43;;;;;;;9.70;7.20;;;;;;;9.89;73.71;100995.89;109062;1273;22054;-87
2022/09/21 04:34:48;;;;;;;8.30;7.20;;;;;;;9.89;73.52;100993.65;108722;1276;22089;-87
2022/09/21 04:37:59;;;;;;;13.00;9.00;;;;;;;9.90;73.60;100996.41;108511;1276;22040;-87
2022/09/21 04:40:56;;;;;;;9.80;8.30;;;;;;;9.92;73.73;100997.77;108701;1276;23625;-88
2022/09/21 04:44:02;;;;;;;;;;;;;;;;;;;;;
2022/09/21 04:51:59;;;;;;;13.50;10.70;;;;;;;9.87;73.78;101003.95;110007;1269;22004;-88
2022/09/21 05:04:13;;;;;;;;;;;;;;;;;;;;;
2022/09/21 05:08:23;;;;;;;15.40;11.50;;;;;;;9.89;74.12;101002.88;109068;1281;22105;-89
2022/09/21 05:11:34;;;;;;;17.00;13.60;;;;;;;9.92;74.00;101008.02;108561;1281;22793;-86
2022/09/21 05:14:46;;;;;;;;;;;;;;;;;;;;;
2022/09/21 05:17:46;;;;;;;11.30;10.20;;;;;;;9.96;73.98;101016.09;108895;1281;23638;-86
2022/09/21 05:21:13;;;;;;;;;;;;;;;;;;;;;
2022/09/21 05:25:21;;;;;;;14.30;12.80;;;;;;;9.96;74.14;101013.14;107587;1293;21992;-85
2022/09/21 05:28:35;;;;;;;15.90;13.80;;;;;;;10.00;74.31;101017.02;107284;1296;22504;-86
2022/09/21 05:31:52;;;;;;;11.90;10.70;;;;;;;10.10;74.43;101019.21;107397;1295;22030;-88
2022/09/21 05:35:15;;;;;;;11.30;10.00;;;;;;;10.18;74.14;101025.63;107435;1296;22016;-87
2022/09/21 05:38:55;;;;;;;;;;;;;;;;;;;;;
2022/09/21 05:41:52;;;;;;;8.50;7.20;;;;;;;10.27;74.31;101025.58;107544;1293;22013;-86
2022/09/21 05:45:03;;;;;;;9.00;7.20;;;;;;;10.37;74.40;101026.91;107034;1296;24410;-87
2022/09/21 05:51:53;;;;;;;7.60;6.80;;;;;;;10.48;74.16;101029.41;108970;1276;23094;-87
2022/09/21 05:55:45;;;;;;;7.80;7.00;;;;;;;10.52;74.04;101030.69;108597;1280;22033;-88
2022/09/21 06:02:51;;;;;;;11.40;8.50;;;;;;;10.59;74.14;101039.88;107826;1291;22159;-86
2022/09/21 06:05:50;;;;;;;9.60;8.00;;;;;;;10.68;74.22;101041.77;107706;1291;22014;-87
2022/09/21 06:08:53;;;;;;;10.90;9.50;;;;;;;10.79;73.94;101040.92;107554;1291;22010;-86
2022/09/21 06:11:54;;;;;;;12.60;8.80;;;;;;;10.83;73.94;101039.94;106778;1298;22559;-84
2022/09/21 06:14:46;;;;;;;9.30;8.50;;;;;;;10.90;73.76;101045.48;106879;1297;22420;-87
2022/09/21 06:18:13;;;;;;;;;;;;;;;;;;;;;
2022/09/21 06:21:07;;;;;;;10.50;8.00;;;;;;;10.97;73.69;101049.84;107109;1297;22012;-88
2022/09/21 06:24:05;;;;;;;7.70;6.40;;;;;;;11.03;73.59;101053.14;107541;1290;22071;-86
2022/09/21 06:27:10;;;;;;;9.90;8.10;;;;;;;11.08;73.45;101057.52;107517;1290;21985;-87
2022/09/21 06:30:12;;;;;;;6.40;5.80;;;;;;;11.12;73.30;101058.98;107848;1285;22784;-86
2022/09/21 06:33:22;;;;;;;;;;;;;;;;;;;;;
2022/09/21 06:36:23;;;;;;;;;;;;;;;;;;;;;
2022/09/21 06:39:04;;;;;;;8.00;6.00;;;;;;;11.25;73.34;101062.96;108726;1273;22057;-85
2022/09/21 06:41:59;;;;;;;8.40;5.50;;;;;;;11.33;73.24;101061.85;109067;1273;21996;-84
2022/09/21 06:44:48;;;;;;;9.00;5.60;;;;;;;11.41;73.12;101062.49;109017;1273;23667;-87
2022/09/21 06:47:22;;;;;;;6.90;5.90;;;;;;;11.47;73.12;101061.61;108971;1273;22000;-85
2022/09/21 06:50:02;;;;;;;6.90;5.50;;;;;;;11.53;72.87;101055.50;108697;1276;22096;-86
2022/09/21 06:52:49;;;;;;;6.40;5.20;;;;;;;11.55;72.66;101058.77;108590;1276;22077;-86
2022/09/21 06:55:30;;;;;;;9.10;5.90;;;;;;;11.60;72.58;101063.31;108804;1276;21998;-85
2022/09/21 06:58:11;;;;;;;6.00;5.00;;;;;;;11.64;72.59;101064.93;108526;1276;22004;-84
2022/09/21 07:01:15;;;;;;;8.40;5.10;;;;;;;11.72;72.61;101065.05;108499;1276;22878;-84
2022/09/21 07:03:55;;;;;;;7.60;4.80;;;;;;;11.78;72.58;101066.77;108637;1276;23786;-85
2022/09/21 07:07:10;;;;;;;6.80;4.20;;;;;;;11.83;72.43;101071.50;108665;1276;23795;-85
2022/09/21 07:09:59;;;;;;;7.10;5.30;;;;;;;11.87;72.31;101074.70;108713;1273;23769;-85
2022/09/21 07:13:05;;;;;;;10.80;5.10;;;;;;;11.89;72.14;101075.33;108789;1273;21988;-84
2022/09/21 07:15:51;;;;;;;7.20;4.60;;;;;;;11.93;72.18;101072.25;108893;1273;21991;-85
2022/09/21 07:18:32;;;;;;;6.30;4.60;;;;;;;11.99;72.22;101074.33;109160;1273;22009;-86
2022/09/21 07:21:21;;;;;;;8.00;5.10;;;;;;;12.06;72.01;101079.52;109246;1273;24429;-87
2022/09/21 07:23:55;;;;;;;8.70;6.10;;;;;;;12.12;71.75;101081.06;108934;1273;22452;-83
2022/09/21 07:26:27;;;;;;;13.00;8.10;;;;;;;12.17;71.56;101079.86;108939;1273;21997;-88
2022/09/21 07:29:37;;;;;;;;;;;;;;;;;;;;;
2022/09/21 07:32:35;;;;;;;8.80;6.10;;;;;;;12.17;71.37;101081.44;109344;1270;23694;-86
2022/09/21 07:35:10;;;;;;;9.30;5.60;;;;;;;12.21;71.42;101088.46;108830;1270;23599;-83
2022/09/21 07:38:00;;;;;;;6.20;4.70;;;;;;;12.26;71.24;101091.95;108851;1270;23609;-86
2022/09/21 07:40:56;;;;;;;6.10;5.30;;;;;;;12.34;71.13;101091.17;109184;1270;21986;-87
2022/09/21 07:44:51;;;;;;;;;;;;;;;;;;;;;
2022/09/21 07:48:45;;;;;;;6.90;4.50;;;;;;;12.56;71.27;101091.48;109573;1270;22002;-85
2022/09/21 07:51:22;;;;;;;5.70;3.60;;;;;;;12.79;71.21;101101.70;109009;1276;22757;-85
2022/09/21 07:54:01;;;;;;;4.60;4.10;;;;;;;12.92;70.85;101101.23;108783;1276;21998;-86
2022/09/21 07:56:39;;;;;;;6.60;4.40;;;;;;;13.09;70.86;101102.02;108741;1276;22737;-87
2022/09/21 07:59:49;;;;;;;7.90;4.60;;;;;;;13.43;71.27;101104.98;109210;1276;22111;-90
2022/09/21 08:03:20;;;;;;;4.60;3.60;;;;;;;13.87;71.11;101099.27;109023;1282;22031;-88
2022/09/21 08:06:26;;;;;;;5.20;3.70;;;;;;;14.26;69.81;101101.39;108439;1288;21873;-90
2022/09/21 08:09:25;;;;;;;6.70;4.20;;;;;;;14.54;68.75;101104.59;109862;1273;21987;-89
2022/09/21 08:12:36;;;;;;;6.70;4.20;;;;;;;14.79;67.55;101100.02;109554;1273;22423;-88
2022/09/21 08:16:14;;;;;;;6.00;3.30;;;;;;;15.01;66.63;101096.11;109434;1278;24601;-88
2022/09/21 08:19:27;;;;;;;;;;;;;;;;;;;;;
2022/09/21 08:23:17;;;;;;;5.20;3.40;;;;;;;15.31;64.65;101096.16;109775;1270;22003;-86
2022/09/21 08:30:31;;;;;;;;;;;;;;;;;;;;;
2022/09/21 08:33:36;;;;;;;8.20;3.10;;;;;;;16.03;63.86;101094.90;110205;1271;23080;-90
2022/09/21 08:36:09;;;;;;;5.20;3.80;;;;;;;16.47;62.89;101094.33;109332;1270;21981;-87
2022/09/21 08:38:48;;;;;;;6.20;3.60;;;;;;;17.03;62.93;101096.90;109186;1271;22003;-88
2022/09/21 08:41:25;;;;;;;4.50;2.90;;;;;;;17.58;61.51;101097.46;108970;1276;22448;-86
2022/09/21 08:44:25;;;;;;;;;;;;;;;18.01;59.22;101096.29;109067;1276;22714;-88
2022/09/21 08:47:24;;;;;;;5.20;2.80;;;;;;;18.13;57.50;101094.22;108891;1276;22033;-83
2022/09/21 08:50:03;;;;;;;6.80;4.30;;;;;;;18.45;57.61;101096.23;108794;1276;22020;-87
2022/09/21 08:52:46;;;;;;;;;;;;;;;;;;;;;
2022/09/21 08:58:54;;;;;;;3.70;2.50;;;;;;;18.29;53.28;101104.60;108832;1281;22001;-88
2022/09/21 09:02:05;;;;;;;5.60;2.60;;;;;;;18.01;53.31;101104.80;108562;1282;22005;-87
2022/09/21 09:05:18;;;;;;;6.40;2.90;;;;;;;17.71;53.48;101108.34;108993;1279;22006;-83
2022/09/21 09:08:13;;;;;;;3.80;2.60;;;;;;;17.37;53.55;101107.55;108853;1276;22022;-80
2022/09/21 09:11:23;;;;;;;4.50;2.00;;;;;;;17.12;53.98;101101.88;108756;1276;23849;-86
2022/09/21 09:14:15;;;;;;;15.70;4.00;;;;;;;16.92;54.26;101101.00;108837;1276;23076;-83
2022/09/21 09:17:17;;;;;;;4.20;2.30;;;;;;;16.87;55.75;101098.98;108908;1270;21980;-81
2022/09/21 09:20:09;;;;;;;4.80;2.10;;;;;;;17.15;56.56;101096.09;109134;1270;22003;-84
2022/09/21 09:23:22;;;;;;;6.00;2.80;;;;;;;17.65;57.12;101089.81;108954;1270;23598;-81
2022/09/21 09:26:43;;;;;;;3.10;1.60;;;;;;;18.31;55.72;101084.21;108958;1273;21998;-84
2022/09/21 09:30:18;;;;;;;5.10;2.20;;;;;;;18.43;52.71;101085.60;109131;1270;21999;-85
2022/09/21 09:34:12;;;;;;;3.70;2.10;;;;;;;18.14;51.76;101086.05;108859;1276;22002;-84
2022/09/21 09:37:09;;;;;;;8.60;3.60;;;;;;;17.85;51.75;101087.70;108746;1282;24315;-81
2022/09/21 09:39:41;;;;;;;5.60;3.00;;;;;;;17.85;53.34;101084.52;108124;1282;21952;-84
2022/09/21 09:42:32;;;;;;;5.70;2.70;;;;;;;18.23;53.80;101085.35;108274;1282;22005;-81
2022/09/21 09:45:45;;;;;;;5.20;2.70;;;;;;;18.37;52.24;101089.46;108307;1282;22020;-82
2022/09/21 09:48:50;;;;;;;3.80;1.80;;;;;;;18.38;52.14;101094.39;108383;1282;22062;-80
2022/09/21 09:51:28;;;;;;;2.70;1.40;;;;;;;18.74;52.72;101096.48;108367;1282;22007;-80
2022/09/21 09:54:17;;;;;;;3.00;2.00;;;;;;;19.28;51.54;101093.36;108306;1282;22005;-83
2022/09/21 09:56:54;;;;;;;39.50;2.80;;;;;;;19.35;49.24;101096.09;108391;1282;22006;-85
2022/09/21 10:00:19;;;;;;;5.10;2.00;;;;;;;19.01;48.35;101092.73;108375;1282;22115;-80
2022/09/21 10:03:00;;;;;;;9.90;3.00;;;;;;;18.76;49.91;101093.87;108361;1279;22002;-81
2022/09/21 10:05:37;;;;;;;2.70;1.10;;;;;;;19.02;50.39;101088.79;108496;1276;22003;-83
2022/09/21 10:08:46;;;;;;;;;;;;;;;19.48;50.06;101086.63;108566;1276;21979;-83
2022/09/21 10:11:51;;;;;;;4.00;1.20;;;;;;;19.89;49.06;101081.70;108708;1276;23064;-84
2022/09/21 10:14:33;;;;;;;2.60;1.10;;;;;;;20.37;47.93;101074.84;108910;1271;21982;-82
2022/09/21 10:17:18;;;;;;;4.20;2.00;;;;;;;20.71;45.94;101073.66;108968;1273;23054;-81
2022/09/21 10:20:19;;;;;;;1.60;1.20;;;;;;;20.80;44.83;101071.21;108804;1270;23697;-81
2022/09/21 10:23:04;;;;;;;2.50;1.50;;;;;;;20.57;43.58;101070.70;108005;1273;23725;-82
2022/09/21 10:25:53;;;;;;;2.50;1.20;;;;;;;20.08;43.60;101070.22;108884;1270;22704;-81
2022/09/21 10:28:27;;;;;;;2.00;1.20;;;;;;;19.67;44.44;101073.61;108894;1270;21995;-84
2022/09/21 10:31:22;;;;;;;1.70;1.00;;;;;;;19.40;44.72;101078.16;108849;1271;22463;-83
2022/09/21 10:34:11;;;;;;;2.90;1.40;;;;;;;19.14;45.55;101073.39;108976;1270;22003;-83
2022/09/21 10:36:53;;;;;;;4.80;1.60;;;;;;;19.32;46.58;101069.30;109035;1273;23114;-84
2022/09/21 10:39:27;;;;;;;2.50;1.50;;;;;;;19.39;45.19;101068.10;108573;1276;23064;-82
2022/09/21 10:42:16;;;;;;;2.60;1.20;;;;;;;19.12;44.32;101066.52;108628;1276;22782;-82
2022/09/21 10:45:20;;;;;;;2.40;1.40;;;;;;;18.72;44.68;101074.21;108230;1282;23038;-81
2022/09/21 10:48:12;;;;;;;5.80;1.20;;;;;;;18.31;45.65;101077.15;108288;1282;22022;-83
2022/09/21 10:50:49;;;;;;;5.60;1.40;;;;;;;18.18;46.41;101075.25;108317;1282;22007;-82
2022/09/21 10:53:31;;;;;;;9.40;1.50;;;;;;;18.10;46.26;101071.52;108332;1282;22047;-81
2022/09/21 10:56:11;;;;;;;8.70;2.00;;;;;;;17.89;46.12;101079.06;108205;1282;23041;-82
2022/09/21 10:59:40;;;;;;;4.50;2.40;;;;;;;17.45;47.02;101086.56;108638;1276;23046;-83
2022/09/21 11:02:31;;;;;;;5.50;2.20;;;;;;;16.86;49.03;101087.22;108679;1273;22665;-83
2022/09/21 11:05:18;;;;;;;4.40;2.00;;;;;;;16.35;50.66;101082.25;108619;1276;22002;-84
2022/09/21 11:08:21;;;;;;;3.40;2.00;;;;;;;15.96;52.12;101072.98;108166;1282;22010;-82
2022/09/21 11:11:40;;;;;;;2.70;2.20;;;;;;;15.60;53.22;101070.61;107986;1282;22007;-84
2022/09/21 11:14:21;;;;;;;6.30;4.50;;;;;;;15.25;54.21;101074.53;108357;1281;22018;-82
2022/09/21 11:17:08;;;;;;;5.60;3.60;;;;;;;15.05;55.54;101074.73;108251;1282;22107;-83
2022/09/21 11:19:55;;;;;;;5.70;4.80;;;;;;;14.92;56.52;101073.55;108331;1281;22066;-83
2022/09/21 11:22:44;;;;;;;7.30;6.30;;;;;;;14.88;57.52;101072.89;108081;1276;22005;-82
2022/09/21 11:25:47;;;;;;;8.60;5.70;;;;;;;14.88;58.41;101072.33;108165;1276;21992;-83
2022/09/21 11:29:11;;;;;;;3.60;2.60;;;;;;;14.90;59.05;101069.63;108685;1276;22753;-83
2022/09/21 11:32:16;;;;;;;6.70;4.80;;;;;;;14.94;59.61;101067.69;108116;1280;22636;-82
2022/09/21 11:35:25;;;;;;;6.50;5.90;;;;;;;15.08;60.33;101069.83;107953;1288;23625;-81
2022/09/21 11:38:25;;;;;;;3.60;3.20;;;;;;;15.27;60.64;101071.78;107860;1287;22016;-82
2022/09/21 11:41:41;;;;;;;3.40;3.00;;;;;;;15.42;60.28;101067.77;107892;1288;22024;-82
2022/09/21 11:44:28;;;;;;;4.50;2.00;;;;;;;15.50;59.64;101063.88;108104;1283;22061;-82
2022/09/21 11:47:41;;;;;;;2.90;2.00;;;;;;;15.50;58.93;101063.88;108152;1283;21978;-81
2022/09/21 11:50:29;;;;;;;3.30;2.40;;;;;;;15.47;58.72;101062.48;107999;1284;23172;-81
2022/09/21 11:53:27;;;;;;;3.80;2.30;;;;;;;15.40;58.58;101059.62;108365;1279;21987;-83
2022/09/21 11:56:52;;;;;;;4.90;1.60;;;;;;;15.32;58.37;101057.54;108444;1279;22120;-82
2022/09/21 11:59:53;;;;;;;3.10;2.70;;;;;;;15.17;58.37;101047.34;108193;1283;22008;-82
2022/09/21 12:02:49;;;;;;;4.40;3.00;;;;;;;15.12;58.68;101045.67;108358;1283;23014;-84
2022/09/21 12:05:38;;;;;;;7.00;2.50;;;;;;;15.18;58.92;101042.56;108113;1283;21991;-82
2022/09/21 12:08:42;;;;;;;5.70;2.00;;;;;;;15.31;59.16;101039.38;108154;1277;23076;-81
2022/09/21 12:11:49;;;;;;;2.20;1.50;;;;;;;15.49;59.26;101036.23;108579;1276;22643;-81
2022/09/21 12:14:42;;;;;;;2.30;1.40;;;;;;;15.65;58.04;101040.55;108518;1279;22004;-82
2022/09/21 12:18:05;;;;;;;3.20;1.40;;;;;;;15.67;57.15;101038.55;108558;1277;21990;-81
2022/09/21 12:21:18;;;;;;;2.80;1.30;;;;;;;15.64;56.49;101039.35;108283;1282;23717;-84
2022/09/21 12:24:11;;;;;;;2.20;1.60;;;;;;;15.62;56.16;101037.01;108253;1283;21996;-82
2022/09/21 12:27:17;;;;;;;3.70;1.70;;;;;;;15.61;56.02;101032.86;108252;1282;22051;-84
2022/09/21 12:30:13;;;;;;;2.50;1.50;;;;;;;15.64;55.86;101030.07;108130;1282;22001;-83
2022/09/21 12:32:49;;;;;;;2.80;1.70;;;;;;;15.70;55.89;101029.24;108060;1282;23092;-83
2022/09/21 12:35:48;;;;;;;1.90;1.20;;;;;;;15.80;55.78;101023.55;108478;1279;22870;-84
2022/09/21 12:38:36;;;;;;;3.60;1.60;;;;;;;15.86;55.18;101019.19;108660;1276;23635;-83
2022/09/21 12:41:51;;;;;;;2.00;1.70;;;;;;;15.96;54.55;101018.70;108522;1279;22000;-81
2022/09/21 12:45:01;;;;;;;2.50;2.10;;;;;;;16.05;54.05;101015.30;108582;1276;23079;-82
2022/09/21 12:47:55;;;;;;;4.20;3.40;;;;;;;16.15;53.61;101015.11;108266;1282;23758;-83
2022/09/21 12:51:04;;;;;;;3.90;2.40;;;;;;;16.21;53.09;101018.50;108377;1276;22018;-81
2022/09/21 12:53:48;;;;;;;4.80;3.30;;;;;;;16.23;52.70;101020.36;108287;1282;22072;-81
2022/09/21 12:56:36;;;;;;;2.90;1.90;;;;;;;16.22;52.55;101016.73;108492;1282;22009;-85
2022/09/21 12:59:33;;;;;;;3.50;1.70;;;;;;;16.17;52.04;101017.52;108405;1282;22116;-83
2022/09/21 13:02:44;;;;;;;2.60;1.50;;;;;;;16.09;51.81;101015.29;108281;1279;23184;-84
2022/09/21 13:05:53;;;;;;;2.50;1.80;;;;;;;16.02;51.66;101013.00;108325;1279;24526;-82
2022/09/21 13:09:25;;;;;;;2.70;1.50;;;;;;;15.98;51.74;101014.24;108593;1279;21984;-84
2022/09/21 13:12:39;;;;;;;3.50;1.50;;;;;;;16.01;51.93;101019.35;108701;1273;23022;-82
2022/09/21 13:15:34;;;;;;;1.70;1.00;;;;;;;16.00;51.47;101027.29;108614;1274;22611;-87
2022/09/21 13:18:28;;;;;;;2.90;1.00;;;;;;;15.85;51.19;101024.15;108720;1275;22987;-82
2022/09/21 13:21:25;;;;;;;3.60;1.50;;;;;;;15.70;51.26;101027.16;108718;1273;21988;-83
2022/09/21 13:24:07;;;;;;;1.30;0.90;;;;;;;15.62;51.47;101028.77;108779;1276;22058;-86
2022/09/21 13:27:03;;;;;;;4.10;1.30;;;;;;;15.53;51.54;101031.30;109003;1269;23841;-83
2022/09/21 13:30:42;;;;;;;4.00;1.20;;;;;;;15.40;51.69;101030.70;108870;1276;22683;-84
2022/09/21 13:33:18;;;;;;;1.40;1.00;;;;;;;15.33;51.93;101030.29;108716;1276;23783;-83
2022/09/21 13:36:36;;;;;;;3.00;1.20;;;;;;;15.29;51.94;101028.95;108552;1279;22009;-83
2022/09/21 13:39:24;;;;;;;2.80;1.40;;;;;;;15.27;52.11;101028.67;108228;1282;22086;-83
2022/09/21 13:42:48;;;;;;;2.40;1.40;;;;;;;15.25;51.96;101021.90;108246;1282;22024;-83
2022/09/21 13:45:33;;;;;;;2.40;1.60;;;;;;;15.24;51.97;101021.42;107926;1288;22009;-84
2022/09/21 13:48:27;;;;;;;30.80;4.90;;;;;;;15.28;52.04;101013.71;108065;1285;22018;-84
2022/09/21 13:51:11;;;;;;;2.70;1.60;;;;;;;15.35;52.19;101010.59;108218;1285;22428;-85
2022/09/21 13:53:58;;;;;;;6.50;2.50;;;;;;;15.44;52.09;101013.30;107605;1288;22030;-90
2022/09/21 13:57:10;;;;;;;;;;;;;;;;;;;;;
2022/09/21 13:59:43;;;;;;;8.40;5.20;;;;;;;15.55;52.05;101012.23;107959;1284;22403;-87
2022/09/21 14:03:02;;;;;;;4.60;3.40;;;;;;;15.62;52.07;101007.73;108296;1284;22452;-87
2022/09/21 14:06:31;;;;;;;6.40;4.80;;;;;;;15.65;52.35;101008.77;108165;1284;22026;-86
2022/09/21 14:09:38;;;;;;;9.60;7.70;;;;;;;15.73;52.86;101007.52;108443;1282;23837;-86
2022/09/21 14:12:58;;;;;;;10.20;4.00;;;;;;;15.82;53.03;101008.70;108583;1277;22019;-85
2022/09/21 14:15:42;;;;;;;8.00;3.50;;;;;;;15.92;53.16;101010.88;108744;1277;23640;-82
2022/09/21 14:18:36;;;;;;;;;;;;;;;15.98;53.20;101008.97;108785;1279;21997;-84
2022/09/21 14:21:24;;;;;;;3.80;2.60;;;;;;;15.91;53.33;101010.00;108961;1270;21994;-82
2022/09/21 14:24:50;;;;;;;3.70;2.50;;;;;;;15.89;53.50;101008.56;109110;1270;21984;-82
2022/09/21 14:28:12;;;;;;;3.00;2.30;;;;;;;15.81;53.41;101005.44;108888;1276;22002;-88
2022/09/21 14:30:55;;;;;;;3.00;2.10;;;;;;;15.75;53.19;101001.49;108912;1276;22782;-83
2022/09/21 14:33:47;;;;;;;2.00;1.70;;;;;;;15.74;53.12;101000.32;108581;1276;23082;-84
2022/09/21 14:36:52;;;;;;;3.50;1.90;;;;;;;15.74;53.03;101000.99;108720;1276;22004;-85
2022/09/21 14:39:42;;;;;;;2.60;1.70;;;;;;;15.71;53.25;100998.17;108721;1276;22018;-78
2022/09/21 14:42:31;;;;;;;3.60;2.00;;;;;;;15.70;53.07;100997.84;108931;1276;24343;-79
2022/09/21 14:45:18;;;;;;;3.90;2.60;;;;;;;15.69;52.93;100998.96;108357;1282;22023;-91
2022/09/21 14:48:36;;;;;;;14.00;2.50;;;;;;;15.65;52.87;100998.83;108162;1283;22980;-87
2022/09/21 14:52:03;;;;;;;4.90;2.50;;;;;;;15.58;52.99;100996.32;108322;1282;23731;-80
2022/09/21 14:55:17;;;;;;;5.00;2.40;;;;;;;15.50;53.29;100998.63;107720;1289;22078;-81
2022/09/21 14:58:21;;;;;;;3.70;2.10;;;;;;;15.49;53.65;100999.42;107667;1290;23059;-84
2022/09/21 15:01:24;;;;;;;4.40;2.50;;;;;;;15.51;53.81;100993.17;107926;1290;22536;-84
2022/09/21 15:04:08;;;;;;;5.80;2.10;;;;;;;15.58;53.93;100993.35;108414;1279;22078;-81
2022/09/21 15:13:35;;;;;;;4.90;2.50;;;;;;;15.76;54.34;100991.95;108472;1279;21996;-84
2022/09/21 15:16:20;;;;;;;2.70;1.40;;;;;;;15.87;53.98;100991.44;108739;1279;22769;-83
2022/09/21 15:19:22;;;;;;;3.00;1.60;;;;;;;15.93;53.60;100997.61;108624;1279;22222;-88
2022/09/21 15:22:21;;;;;;;2.60;1.60;;;;;;;15.97;53.15;100998.84;108099;1285;23686;-82
2022/09/21 15:25:01;;;;;;;4.70;1.70;;;;;;;15.96;52.82;100999.77;108120;1283;22015;-84
2022/09/21 15:27:44;;;;;;;3.20;2.10;;;;;;;15.95;52.68;101008.41;108158;1279;21999;-81